Time;durP1;ratioP1;P1;durP2;ratioP2;P2;SDS_P1;SDS_P2;PMS_P1;PMS_P2;Temp;Humidity;BMP_temperature;BMP_pressure;BME280_temperature;BME280_humidity;BME280_pressure;Samples;Min_cycle;Max_cycle;Signal;HPM_P1;HPM_P2
2023/09/25 00:00:35;;;;;;;0.10;0.10;;;12.80;99.90;;;;;;5087356;28;20189;-80
2023/09/25 00:03:02;;;;;;;0.10;0.10;;;12.80;99.90;;;;;;5096643;28;20193;-80
2023/09/25 00:05:29;;;;;;;0.13;0.13;;;12.80;99.90;;;;;;5100673;28;20296;-80
2023/09/25 00:07:56;;;;;;;0.20;0.20;;;12.80;99.90;;;;;;5112672;28;20426;-80
2023/09/25 00:10:21;;;;;;;0.20;0.20;;;12.80;99.90;;;;;;5109827;28;20960;-79
2023/09/25 00:12:47;;;;;;;0.20;0.20;;;12.80;99.90;;;;;;5092950;28;20446;-80
2023/09/25 00:15:15;;;;;;;0.10;0.10;;;12.80;99.90;;;;;;5098628;28;20230;-79
2023/09/25 00:17:42;;;;;;;0.10;0.10;;;12.80;99.90;;;;;;5086596;28;20434;-80
2023/09/25 00:20:10;;;;;;;0.10;0.10;;;12.80;99.90;;;;;;5083829;28;20442;-80
2023/09/25 00:22:37;;;;;;;0.10;0.10;;;12.80;99.90;;;;;;5092921;28;20426;-80
2023/09/25 00:25:03;;;;;;;0.10;0.10;;;12.80;99.90;;;;;;5090518;28;20532;-80
2023/09/25 00:27:31;;;;;;;0.10;0.10;;;12.80;99.90;;;;;;5094078;28;20465;-80
2023/09/25 00:29:57;;;;;;;0.10;0.10;;;12.70;99.90;;;;;;5096016;28;20904;-80
2023/09/25 00:32:23;;;;;;;0.10;0.10;;;12.70;99.90;;;;;;5096765;28;20466;-80
2023/09/25 00:34:48;;;;;;;0.10;0.10;;;12.70;99.90;;;;;;5098564;28;20275;-80
2023/09/25 00:37:14;;;;;;;0.20;0.20;;;12.60;99.90;;;;;;5094768;28;20203;-80
2023/09/25 00:39:41;;;;;;;0.20;0.20;;;12.70;99.90;;;;;;5093569;28;20189;-80
2023/09/25 00:42:07;;;;;;;0.10;0.10;;;12.70;99.90;;;;;;5079640;28;20272;-81
2023/09/25 00:44:33;;;;;;;0.10;0.10;;;12.70;99.90;;;;;;5091841;28;20525;-81
2023/09/25 00:46:59;;;;;;;0.20;0.20;;;12.70;99.90;;;;;;5100499;28;20192;-80
2023/09/25 00:49:25;;;;;;;0.10;0.10;;;12.60;99.90;;;;;;5089086;28;20238;-81
2023/09/25 00:51:51;;;;;;;0.20;0.20;;;12.60;99.90;;;;;;5101988;28;20447;-80
2023/09/25 00:54:18;;;;;;;0.10;0.10;;;12.60;99.90;;;;;;5093508;28;20462;-80
2023/09/25 00:56:46;;;;;;;0.10;0.10;;;12.60;99.90;;;;;;5093072;28;20645;-79
2023/09/25 00:59:12;;;;;;;0.07;0.07;;;12.60;99.90;;;;;;5090581;28;20495;-80
2023/09/25 01:01:38;;;;;;;0.10;0.10;;;12.60;99.90;;;;;;5092934;28;20489;-80
2023/09/25 01:04:04;;;;;;;0.10;0.10;;;12.60;99.90;;;;;;5100220;28;20184;-81
2023/09/25 01:06:29;;;;;;;0.10;0.10;;;12.40;99.90;;;;;;5107871;28;20196;-81
2023/09/25 01:08:55;;;;;;;0.10;0.10;;;12.40;99.90;;;;;;5092237;28;20499;-81
2023/09/25 01:11:22;;;;;;;0.20;0.20;;;12.50;99.90;;;;;;5093389;28;20247;-80
2023/09/25 01:13:47;;;;;;;0.20;0.20;;;12.50;99.90;;;;;;5097573;28;20201;-80
2023/09/25 01:16:13;;;;;;;0.10;0.10;;;12.40;99.90;;;;;;5090714;28;20478;-81
2023/09/25 01:18:38;;;;;;;0.10;0.10;;;12.30;99.90;;;;;;5086001;28;20188;-81
2023/09/25 01:21:04;;;;;;;0.10;0.10;;;12.30;99.90;;;;;;5092699;28;20211;-81
2023/09/25 01:23:30;;;;;;;0.10;0.10;;;12.20;99.90;;;;;;5091113;28;20193;-81
2023/09/25 01:25:56;;;;;;;0.10;0.10;;;12.30;99.90;;;;;;5077530;28;20652;-80
2023/09/25 01:28:21;;;;;;;0.20;0.20;;;12.30;99.90;;;;;;5091923;28;20434;-81
2023/09/25 01:30:47;;;;;;;0.10;0.10;;;12.30;99.90;;;;;;5091939;28;20185;-80
2023/09/25 01:33:12;;;;;;;0.10;0.10;;;12.30;99.90;;;;;;5098875;28;20593;-81
2023/09/25 01:35:38;;;;;;;0.20;0.20;;;12.10;99.90;;;;;;5099912;28;20679;-80
2023/09/25 01:38:04;;;;;;;0.10;0.10;;;12.20;99.90;;;;;;5099913;28;20185;-79
2023/09/25 01:40:31;;;;;;;0.20;0.20;;;12.20;99.90;;;;;;5106763;28;20176;-80
2023/09/25 01:42:57;;;;;;;0.20;0.20;;;12.30;99.90;;;;;;5081522;28;20446;-80
2023/09/25 01:45:23;;;;;;;0.20;0.20;;;12.20;99.90;;;;;;5090174;28;20530;-81
2023/09/25 01:47:50;;;;;;;0.17;0.17;;;12.20;99.90;;;;;;5089625;28;20529;-80
2023/09/25 01:50:24;;;;;;;0.10;0.10;;;12.20;99.90;;;;;;5090654;28;20499;-80
2023/09/25 01:52:53;;;;;;;0.20;0.20;;;12.10;99.90;;;;;;5091091;28;20429;-81
2023/09/25 01:55:19;;;;;;;0.10;0.10;;;12.10;99.90;;;;;;5097528;28;20553;-80
2023/09/25 01:57:45;;;;;;;0.20;0.20;;;12.00;99.90;;;;;;5100710;28;20439;-81
2023/09/25 02:00:12;;;;;;;0.20;0.20;;;12.10;99.90;;;;;;5070858;28;20489;-81
2023/09/25 02:02:38;;;;;;;0.20;0.20;;;12.00;99.90;;;;;;5093753;28;20256;-81
2023/09/25 02:05:04;;;;;;;0.17;0.17;;;12.00;99.90;;;;;;5100454;28;20521;-78
2023/09/25 02:07:29;;;;;;;0.13;0.13;;;11.90;99.90;;;;;;5083115;28;20185;-78
2023/09/25 02:09:55;;;;;;;0.20;0.20;;;11.90;99.90;;;;;;5089424;28;20534;-78
2023/09/25 02:12:20;;;;;;;0.10;0.10;;;12.00;99.90;;;;;;5076091;28;20184;-80
2023/09/25 02:14:47;;;;;;;0.20;0.20;;;11.90;99.90;;;;;;5092764;28;20258;-80
2023/09/25 02:17:13;;;;;;;0.20;0.20;;;12.00;99.90;;;;;;5089446;28;20551;-81
2023/09/25 02:19:39;;;;;;;0.20;0.20;;;12.00;99.90;;;;;;5104841;28;20856;-81
2023/09/25 02:22:06;;;;;;;0.10;0.10;;;12.00;99.90;;;;;;5089363;28;20174;-81
2023/09/25 02:24:34;;;;;;;0.20;0.20;;;12.00;99.90;;;;;;5090921;28;20439;-80
2023/09/25 02:26:59;;;;;;;0.20;0.20;;;12.00;99.90;;;;;;5108020;28;20537;-80
2023/09/25 02:29:25;;;;;;;0.20;0.20;;;12.00;99.90;;;;;;5103259;28;21002;-81
2023/09/25 02:31:50;;;;;;;0.20;0.20;;;12.00;99.90;;;;;;5071290;28;20247;-80
2023/09/25 02:34:16;;;;;;;0.20;0.20;;;12.00;99.90;;;;;;5088961;28;20767;-81
2023/09/25 02:36:42;;;;;;;0.20;0.20;;;12.00;99.90;;;;;;5089826;28;20192;-81
2023/09/25 02:39:09;;;;;;;0.10;0.10;;;12.00;99.90;;;;;;5090168;28;20636;-80
2023/09/25 02:41:35;;;;;;;0.20;0.20;;;12.00;99.90;;;;;;5090223;28;20173;-80
2023/09/25 02:44:00;;;;;;;0.10;0.10;;;12.10;99.90;;;;;;5089953;28;20525;-80
2023/09/25 02:46:26;;;;;;;0.17;0.17;;;11.90;99.90;;;;;;5088303;28;20254;-80
2023/09/25 02:48:51;;;;;;;0.20;0.20;;;11.90;99.90;;;;;;5086162;28;20210;-80
2023/09/25 02:51:17;;;;;;;0.20;0.20;;;11.90;99.90;;;;;;5091243;28;20219;-80
2023/09/25 02:53:42;;;;;;;0.20;0.20;;;12.00;99.90;;;;;;5098768;28;20640;-80
2023/09/25 02:56:08;;;;;;;0.10;0.10;;;12.00;99.90;;;;;;5079322;28;20228;-80
2023/09/25 02:58:33;;;;;;;0.20;0.20;;;11.90;99.90;;;;;;5097997;28;20228;-80
2023/09/25 03:01:00;;;;;;;0.10;0.10;;;12.00;99.90;;;;;;5075195;28;20854;-80
2023/09/25 03:03:27;;;;;;;0.10;0.10;;;12.00;99.90;;;;;;5093839;28;20189;-80
2023/09/25 03:05:53;;;;;;;0.10;0.10;;;12.00;99.90;;;;;;5093327;28;20455;-80
2023/09/25 03:08:19;;;;;;;0.10;0.10;;;12.00;99.90;;;;;;5092250;28;20818;-81
2023/09/25 03:10:44;;;;;;;0.10;0.10;;;12.00;99.90;;;;;;5092514;28;20269;-80
2023/09/25 03:13:10;;;;;;;0.20;0.20;;;12.00;99.90;;;;;;5077260;28;20185;-80
2023/09/25 03:15:35;;;;;;;0.20;0.20;;;12.00;99.90;;;;;;5102353;28;20227;-79
2023/09/25 03:18:01;;;;;;;0.20;0.20;;;11.90;99.90;;;;;;5110529;28;20229;-80
2023/09/25 03:20:26;;;;;;;0.20;0.20;;;12.00;99.90;;;;;;5092772;28;20273;-80
2023/09/25 03:22:54;;;;;;;0.20;0.20;;;11.80;99.90;;;;;;5088771;28;20594;-80
2023/09/25 03:25:20;;;;;;;0.20;0.20;;;11.90;99.90;;;;;;5089638;28;20216;-80
2023/09/25 03:27:46;;;;;;;0.20;0.20;;;11.80;99.90;;;;;;5071510;28;20997;-80
2023/09/25 03:30:13;;;;;;;0.20;0.20;;;11.80;99.90;;;;;;5074646;28;20294;-80
2023/09/25 03:32:38;;;;;;;0.20;0.20;;;11.80;99.90;;;;;;5093005;28;20672;-80
2023/09/25 03:35:04;;;;;;;0.20;0.20;;;11.80;99.90;;;;;;5106356;28;20461;-80
2023/09/25 03:37:30;;;;;;;0.20;0.20;;;11.80;99.90;;;;;;5094677;28;20238;-80
2023/09/25 03:39:55;;;;;;;0.20;0.20;;;11.80;99.90;;;;;;5097127;28;20962;-80
2023/09/25 03:42:21;;;;;;;0.20;0.20;;;11.90;99.90;;;;;;5098170;28;20585;-79
2023/09/25 03:44:47;;;;;;;0.20;0.20;;;11.90;99.90;;;;;;5108017;28;20177;-80
2023/09/25 03:47:13;;;;;;;0.20;0.20;;;11.80;99.90;;;;;;5089481;28;20661;-79
2023/09/25 03:49:39;;;;;;;0.10;0.10;;;11.80;99.90;;;;;;5089478;28;20785;-80
2023/09/25 03:52:05;;;;;;;0.20;0.20;;;11.80;99.90;;;;;;5089055;28;20973;-80
2023/09/25 03:54:31;;;;;;;0.20;0.20;;;11.80;99.90;;;;;;5095740;28;20509;-79
2023/09/25 03:56:56;;;;;;;0.20;0.20;;;11.80;99.90;;;;;;5072939;28;20435;-80
2023/09/25 03:59:22;;;;;;;0.20;0.20;;;11.80;99.90;;;;;;5091625;28;20693;-79
2023/09/25 04:01:48;;;;;;;0.20;0.20;;;11.80;99.90;;;;;;5107655;28;20245;-80
2023/09/25 04:04:13;;;;;;;0.10;0.10;;;11.70;99.90;;;;;;5106382;28;20183;-80
2023/09/25 04:06:39;;;;;;;0.20;0.20;;;11.80;99.90;;;;;;5090270;28;20673;-79
2023/09/25 04:09:08;;;;;;;0.20;0.20;;;11.70;99.90;;;;;;5090386;28;20795;-80
2023/09/25 04:11:33;;;;;;;0.20;0.20;;;11.70;99.90;;;;;;5074542;28;20551;-79
2023/09/25 04:14:03;;;;;;;0.20;0.20;;;11.70;99.90;;;;;;5091132;28;20453;-80
2023/09/25 04:16:29;;;;;;;0.10;0.10;;;11.70;99.90;;;;;;5090890;28;20235;-80
2023/09/25 04:18:55;;;;;;;0.20;0.20;;;11.70;99.90;;;;;;5094834;28;20473;-79
2023/09/25 04:21:21;;;;;;;0.20;0.20;;;11.70;99.90;;;;;;5096522;28;20593;-79
2023/09/25 04:23:47;;;;;;;0.20;0.20;;;11.70;99.90;;;;;;5102794;28;20188;-80
2023/09/25 04:26:13;;;;;;;0.20;0.20;;;11.70;99.90;;;;;;5097150;28;20516;-79
2023/09/25 04:28:42;;;;;;;0.20;0.20;;;11.70;99.90;;;;;;5097426;28;20852;-79
2023/09/25 04:31:10;;;;;;;0.20;0.20;;;11.70;99.90;;;;;;5098307;28;20439;-79
2023/09/25 04:33:36;;;;;;;0.20;0.20;;;11.70;99.90;;;;;;5093508;28;20495;-79
2023/09/25 04:36:02;;;;;;;0.17;0.17;;;11.70;99.90;;;;;;5093839;28;20562;-80
2023/09/25 04:38:29;;;;;;;0.20;0.20;;;11.70;99.90;;;;;;5100661;28;20177;-80
2023/09/25 04:40:57;;;;;;;0.20;0.20;;;11.60;99.90;;;;;;5081286;28;20446;-80
2023/09/25 04:43:23;;;;;;;0.20;0.20;;;11.60;99.90;;;;;;5074809;28;20572;-80
2023/09/25 04:45:51;;;;;;;0.10;0.10;;;11.50;99.90;;;;;;5094366;28;20446;-80
2023/09/25 04:48:19;;;;;;;0.20;0.20;;;11.60;99.90;;;;;;5092616;28;20430;-79
2023/09/25 04:50:44;;;;;;;0.20;0.20;;;11.60;99.90;;;;;;5094920;28;20493;-79
2023/09/25 04:53:10;;;;;;;0.10;0.10;;;11.60;99.90;;;;;;5070292;28;20526;-80
2023/09/25 04:55:38;;;;;;;0.20;0.20;;;11.60;99.90;;;;;;5087487;28;20285;-80
2023/09/25 04:58:03;;;;;;;0.20;0.20;;;11.60;99.90;;;;;;5086207;28;20220;-80
2023/09/25 05:00:31;;;;;;;0.20;0.20;;;11.60;99.90;;;;;;5069306;28;20459;-79
2023/09/25 05:02:58;;;;;;;0.20;0.20;;;11.60;99.90;;;;;;5063908;28;20193;-80
2023/09/25 05:05:23;;;;;;;0.20;0.20;;;11.60;99.90;;;;;;5093212;28;20439;-80
2023/09/25 05:07:51;;;;;;;0.20;0.20;;;11.50;99.90;;;;;;5092909;28;20571;-80
2023/09/25 05:10:19;;;;;;;0.20;0.20;;;11.50;99.90;;;;;;5087489;28;20188;-80
2023/09/25 05:12:44;;;;;;;0.10;0.10;;;11.50;99.90;;;;;;5073252;28;21185;-82
2023/09/25 05:15:11;;;;;;;0.20;0.20;;;11.50;99.90;;;;;;5073532;28;20481;-80
2023/09/25 05:17:38;;;;;;;0.20;0.20;;;11.50;99.90;;;;;;5075032;28;20173;-80
2023/09/25 05:20:11;;;;;;;0.20;0.20;;;11.50;99.90;;;;;;5103270;28;20430;-80
2023/09/25 05:22:41;;;;;;;0.20;0.20;;;11.50;99.90;;;;;;5099563;28;20435;-81
2023/09/25 05:25:09;;;;;;;0.10;0.10;;;11.50;99.90;;;;;;5091803;28;21096;-81
2023/09/25 05:27:39;;;;;;;0.20;0.20;;;11.50;99.90;;;;;;5073935;28;21203;-80
2023/09/25 05:30:09;;;;;;;0.20;0.20;;;11.50;99.90;;;;;;5071796;28;20791;-80
2023/09/25 05:32:43;;;;;;;0.20;0.20;;;11.50;99.90;;;;;;5089712;28;20435;-81
2023/09/25 05:35:09;;;;;;;0.10;0.10;;;11.50;99.90;;;;;;5065549;28;21006;-80
2023/09/25 05:37:36;;;;;;;0.10;0.10;;;11.60;99.90;;;;;;5102970;28;20988;-81
2023/09/25 05:40:05;;;;;;;0.20;0.20;;;11.60;99.90;;;;;;5074834;28;20517;-80
2023/09/25 05:42:30;;;;;;;0.20;0.20;;;11.60;99.90;;;;;;5093942;28;20452;-80
2023/09/25 05:44:56;;;;;;;0.20;0.20;;;11.60;99.90;;;;;;5106809;28;20424;-79
2023/09/25 05:47:22;;;;;;;0.20;0.20;;;11.60;99.90;;;;;;5094724;28;20180;-81
2023/09/25 05:49:47;;;;;;;0.20;0.20;;;11.60;99.90;;;;;;5088985;28;20701;-82
2023/09/25 05:52:13;;;;;;;0.20;0.20;;;11.60;99.90;;;;;;5090705;28;20737;-81
2023/09/25 05:54:38;;;;;;;0.20;0.20;;;11.60;99.90;;;;;;5073964;28;20231;-80
2023/09/25 05:57:05;;;;;;;0.20;0.20;;;11.70;99.90;;;;;;5090247;28;20191;-81
2023/09/25 05:59:32;;;;;;;0.20;0.20;;;11.70;99.90;;;;;;5100160;28;20257;-82
2023/09/25 06:01:58;;;;;;;0.20;0.20;;;11.80;99.90;;;;;;5089984;28;20522;-82
2023/09/25 06:04:23;;;;;;;0.20;0.20;;;11.80;99.90;;;;;;5083148;28;20443;-81
2023/09/25 06:06:49;;;;;;;0.20;0.20;;;11.80;99.90;;;;;;5088691;28;20181;-82
2023/09/25 06:09:15;;;;;;;0.20;0.20;;;11.80;99.90;;;;;;5087919;28;20277;-82
2023/09/25 06:11:43;;;;;;;0.10;0.10;;;11.80;99.90;;;;;;5080899;28;20241;-81
2023/09/25 06:14:12;;;;;;;0.10;0.10;;;11.90;99.90;;;;;;5069909;28;20424;-79
2023/09/25 06:16:39;;;;;;;0.20;0.20;;;11.90;99.90;;;;;;5091541;28;20447;-80
2023/09/25 06:19:04;;;;;;;0.20;0.20;;;11.90;99.90;;;;;;5086251;28;20439;-78
2023/09/25 06:21:35;;;;;;;0.20;0.20;;;12.00;99.90;;;;;;5086963;28;20829;-82
2023/09/25 06:24:01;;;;;;;0.20;0.20;;;12.10;99.90;;;;;;5087797;28;20189;-81
2023/09/25 06:26:27;;;;;;;0.20;0.20;;;12.10;99.90;;;;;;5056964;28;20791;-81
2023/09/25 06:28:53;;;;;;;0.10;0.10;;;12.10;99.90;;;;;;5088824;28;20191;-82
2023/09/25 06:31:19;;;;;;;0.20;0.20;;;12.10;99.90;;;;;;5088499;28;20473;-81
2023/09/25 06:33:45;;;;;;;0.17;0.17;;;12.20;99.90;;;;;;5077651;28;20940;-81
2023/09/25 06:36:11;;;;;;;0.20;0.20;;;12.10;99.90;;;;;;5089599;28;20692;-80
2023/09/25 06:38:37;;;;;;;0.20;0.20;;;12.20;99.90;;;;;;5076894;28;20215;-80
2023/09/25 06:41:03;;;;;;;0.20;0.20;;;12.30;99.90;;;;;;5078568;28;20433;-82
2023/09/25 06:43:28;;;;;;;0.20;0.20;;;12.30;99.90;;;;;;5093101;28;20555;-78
2023/09/25 06:45:54;;;;;;;0.10;0.10;;;12.40;99.90;;;;;;5084831;28;20224;-79
2023/09/25 06:48:19;;;;;;;0.20;0.20;;;12.50;99.90;;;;;;5085650;28;20192;-81
2023/09/25 06:50:45;;;;;;;0.10;0.10;;;12.50;99.90;;;;;;5084392;28;20188;-82
2023/09/25 06:53:10;;;;;;;0.20;0.20;;;12.50;99.90;;;;;;5076118;28;20204;-80
2023/09/25 06:55:39;;;;;;;0.10;0.10;;;12.60;99.90;;;;;;5086779;28;20213;-81
2023/09/25 06:58:05;;;;;;;0.20;0.20;;;12.70;99.90;;;;;;5085735;28;20193;-81
2023/09/25 07:00:30;;;;;;;0.10;0.10;;;12.70;99.90;;;;;;5087838;28;20510;-82
2023/09/25 07:02:56;;;;;;;0.20;0.20;;;12.80;99.90;;;;;;5073792;28;20271;-81
2023/09/25 07:05:22;;;;;;;0.10;0.10;;;13.00;99.90;;;;;;5087141;28;20528;-83
2023/09/25 07:07:47;;;;;;;0.10;0.10;;;13.00;99.90;;;;;;5088383;28;20181;-81
2023/09/25 07:10:13;;;;;;;0.10;0.10;;;13.10;99.90;;;;;;5083367;28;20657;-82
2023/09/25 07:12:39;;;;;;;0.20;0.20;;;13.20;99.90;;;;;;5076315;28;20647;-82
2023/09/25 07:15:05;;;;;;;0.13;0.13;;;13.30;99.90;;;;;;5083929;28;20824;-82
2023/09/25 07:17:31;;;;;;;0.20;0.20;;;13.40;99.90;;;;;;5071615;28;20212;-82
2023/09/25 07:19:56;;;;;;;0.10;0.10;;;13.50;99.90;;;;;;5075141;28;20951;-81
2023/09/25 07:22:24;;;;;;;0.10;0.10;;;13.60;99.90;;;;;;5088446;28;20217;-82
2023/09/25 07:24:50;;;;;;;0.10;0.10;;;13.70;99.90;;;;;;5088707;28;20177;-82
2023/09/25 07:27:16;;;;;;;0.10;0.10;;;13.80;99.90;;;;;;5089816;28;20422;-81
2023/09/25 07:29:46;;;;;;;0.10;0.10;;;13.70;99.90;;;;;;5086798;28;20426;-82
2023/09/25 07:32:12;;;;;;;0.10;0.10;;;13.80;99.90;;;;;;5075591;28;20453;-81
2023/09/25 07:34:38;;;;;;;0.10;0.10;;;13.90;99.90;;;;;;5071171;28;20474;-81
2023/09/25 07:37:05;;;;;;;0.20;0.20;;;14.00;99.90;;;;;;5079758;28;20458;-82
2023/09/25 07:39:33;;;;;;;0.10;0.10;;;14.00;99.90;;;;;;5089723;28;20427;-81
2023/09/25 07:41:59;;;;;;;0.10;0.10;;;14.10;99.90;;;;;;5087804;28;20970;-83
2023/09/25 07:44:27;;;;;;;0.10;0.10;;;14.30;99.90;;;;;;5085912;28;20435;-82
2023/09/25 07:46:53;;;;;;;0.10;0.10;;;14.40;99.90;;;;;;5086533;28;20200;-82
2023/09/25 07:49:20;;;;;;;0.10;0.10;;;14.50;99.90;;;;;;5092104;28;20448;-82
2023/09/25 07:51:46;;;;;;;0.10;0.10;;;14.50;99.90;;;;;;5097684;28;20444;-82
2023/09/25 07:54:12;;;;;;;0.10;0.10;;;14.50;99.90;;;;;;5096689;28;20426;-84
2023/09/25 07:56:38;;;;;;;0.10;0.10;;;14.50;99.90;;;;;;5087653;28;22265;-80
2023/09/25 07:59:03;;;;;;;0.10;0.10;;;14.50;99.90;;;;;;5088097;28;20261;-81
2023/09/25 08:01:29;;;;;;;0.10;0.10;;;14.50;99.90;;;;;;5082496;28;20237;-81
2023/09/25 08:03:56;;;;;;;0.10;0.10;;;14.60;99.90;;;;;;5086695;28;20184;-79
2023/09/25 08:06:24;;;;;;;0.10;0.10;;;14.50;99.90;;;;;;5088060;28;20435;-81
2023/09/25 08:08:50;;;;;;;0.10;0.10;;;14.60;99.90;;;;;;5085155;28;20444;-80
2023/09/25 08:11:17;;;;;;;0.10;0.10;;;14.60;99.90;;;;;;5068460;28;20529;-79
2023/09/25 08:13:42;;;;;;;0.10;0.10;;;14.60;99.90;;;;;;5085891;28;20427;-80
2023/09/25 08:16:08;;;;;;;0.10;0.10;;;14.70;99.90;;;;;;5087717;28;20531;-79
2023/09/25 08:18:34;;;;;;;0.10;0.10;;;14.70;99.90;;;;;;5090196;28;20268;-81
2023/09/25 08:21:00;;;;;;;0.10;0.10;;;14.60;99.90;;;;;;5066959;28;20303;-83
2023/09/25 08:23:26;;;;;;;0.10;0.10;;;14.70;99.90;;;;;;5086075;28;20459;-81
2023/09/25 08:25:53;;;;;;;0.10;0.10;;;14.80;99.90;;;;;;5083118;28;20463;-79
2023/09/25 08:28:19;;;;;;;0.10;0.10;;;14.90;99.90;;;;;;5090248;28;20434;-78
2023/09/25 08:30:44;;;;;;;0.10;0.10;;;14.80;99.90;;;;;;5072295;28;20435;-81
2023/09/25 08:33:11;;;;;;;0.10;0.10;;;14.90;99.90;;;;;;5078683;28;20185;-79
2023/09/25 08:35:36;;;;;;;0.10;0.10;;;15.00;99.90;;;;;;5085985;28;20224;-79
2023/09/25 08:38:02;;;;;;;0.10;0.10;;;15.10;99.90;;;;;;5091194;28;20426;-79
2023/09/25 08:40:31;;;;;;;0.10;0.10;;;15.20;99.90;;;;;;5069216;28;20181;-79
2023/09/25 08:42:57;;;;;;;0.10;0.10;;;15.20;99.90;;;;;;5082959;28;20191;-79
2023/09/25 08:45:23;;;;;;;0.10;0.10;;;15.30;99.90;;;;;;5061991;28;20530;-79
2023/09/25 08:47:48;;;;;;;0.10;0.10;;;15.50;99.90;;;;;;5070372;28;20710;-80
2023/09/25 08:50:14;;;;;;;0.10;0.10;;;15.70;99.90;;;;;;5068201;28;20222;-78
2023/09/25 08:52:41;;;;;;;0.10;0.10;;;15.70;99.90;;;;;;5087677;28;20601;-80
2023/09/25 08:55:08;;;;;;;0.10;0.10;;;15.70;99.90;;;;;;5088717;28;20483;-78
2023/09/25 08:57:35;;;;;;;0.00;0.00;;;15.80;99.90;;;;;;5072557;28;20434;-78
2023/09/25 09:00:15;;;;;;;0.00;0.00;;;15.90;99.90;;;;;;5087284;28;20523;-79
2023/09/25 09:02:41;;;;;;;0.00;0.00;;;16.00;99.90;;;;;;5083393;28;20507;-79
2023/09/25 09:05:09;;;;;;;0.10;0.10;;;16.20;99.90;;;;;;5077110;28;20959;-81
2023/09/25 09:07:35;;;;;;;0.10;0.10;;;16.30;99.90;;;;;;5094222;28;20444;-78
2023/09/25 09:10:00;;;;;;;0.10;0.10;;;16.30;99.90;;;;;;5086968;28;20476;-79
2023/09/25 09:12:26;;;;;;;0.00;0.00;;;16.50;99.90;;;;;;5091097;28;20230;-79
2023/09/25 09:14:52;;;;;;;0.00;0.00;;;16.80;99.90;;;;;;5088469;28;20219;-80
2023/09/25 09:17:17;;;;;;;0.00;0.00;;;17.00;99.90;;;;;;5117161;27;20216;-79
2023/09/25 09:19:46;;;;;;;0.00;0.00;;;16.80;99.90;;;;;;5098064;28;20184;-78
2023/09/25 09:22:13;;;;;;;0.00;0.00;;;16.80;99.90;;;;;;5086459;28;20191;-78
2023/09/25 09:24:40;;;;;;;0.10;0.10;;;16.80;99.90;;;;;;5064400;28;20531;-78
2023/09/25 09:27:09;;;;;;;0.10;0.10;;;16.80;99.90;;;;;;5096632;28;20543;-78
2023/09/25 09:29:39;;;;;;;0.10;0.10;;;16.90;99.90;;;;;;5085878;28;20492;-78
2023/09/25 09:32:06;;;;;;;0.10;0.10;;;17.00;99.90;;;;;;5089288;28;20926;-80
2023/09/25 09:34:32;;;;;;;0.00;0.00;;;17.00;99.90;;;;;;5088070;28;20445;-78
2023/09/25 09:36:58;;;;;;;0.10;0.10;;;17.00;99.90;;;;;;5086663;28;20447;-79
2023/09/25 09:39:25;;;;;;;0.10;0.10;;;17.20;99.90;;;;;;5088457;28;20526;-79
2023/09/25 09:41:52;;;;;;;0.10;0.10;;;17.30;99.90;;;;;;5089566;28;20191;-80
2023/09/25 09:44:19;;;;;;;0.10;0.10;;;17.50;99.90;;;;;;5087338;28;20431;-78
2023/09/25 09:46:50;;;;;;;0.10;0.10;;;17.50;99.90;;;;;;5090384;28;20463;-78
2023/09/25 09:49:22;;;;;;;0.00;0.00;;;17.50;99.90;;;;;;5097798;28;20456;-78
2023/09/25 09:51:52;;;;;;;0.10;0.10;;;17.70;99.90;;;;;;5107666;28;20426;-78
2023/09/25 09:54:20;;;;;;;0.00;0.00;;;17.70;99.90;;;;;;5092685;28;20434;-79
2023/09/25 09:56:47;;;;;;;0.00;0.00;;;18.00;99.90;;;;;;5095611;28;20458;-80
2023/09/25 09:59:14;;;;;;;0.00;0.00;;;18.30;99.90;;;;;;5098058;28;20459;-80
2023/09/25 10:01:43;;;;;;;0.10;0.10;;;18.30;99.90;;;;;;5078687;28;20500;-78
2023/09/25 10:04:10;;;;;;;0.10;0.00;;;18.40;99.90;;;;;;5089248;28;20428;-79
2023/09/25 10:06:43;;;;;;;0.10;0.10;;;18.60;99.90;;;;;;5100157;28;20451;-79
2023/09/25 10:09:10;;;;;;;0.10;0.10;;;18.80;99.90;;;;;;5088726;28;20510;-80
2023/09/25 10:11:36;;;;;;;0.10;0.10;;;19.20;99.90;;;;;;5088199;28;20447;-79
2023/09/25 10:14:03;;;;;;;0.10;0.10;;;19.20;99.90;;;;;;5076576;28;20461;-80
2023/09/25 10:16:30;;;;;;;0.10;0.10;;;19.20;99.90;;;;;;5064577;28;20213;-79
2023/09/25 10:18:56;;;;;;;0.00;0.00;;;19.50;99.90;;;;;;5075333;28;20811;-79
2023/09/25 10:21:22;;;;;;;0.00;0.00;;;19.70;99.90;;;;;;5077120;28;20457;-78
2023/09/25 10:23:49;;;;;;;0.00;0.00;;;19.80;99.90;;;;;;5091205;28;20180;-80
2023/09/25 10:26:24;;;;;;;0.00;0.00;;;19.80;99.90;;;;;;5080089;28;20184;-79
2023/09/25 10:29:14;;;;;;;0.00;0.00;;;20.10;99.90;;;;;;5099921;28;20442;-80
2023/09/25 10:31:48;;;;;;;0.00;0.00;;;20.30;99.90;;;;;;5086978;28;20484;-79
2023/09/25 10:34:14;;;;;;;0.00;0.00;;;20.50;99.90;;;;;;5091194;28;20549;-79
2023/09/25 10:36:45;;;;;;;0.00;0.00;;;20.50;99.90;;;;;;5093776;28;20591;-79
2023/09/25 10:39:15;;;;;;;0.00;0.00;;;20.10;99.90;;;;;;5082005;28;20462;-79
2023/09/25 10:41:42;;;;;;;0.00;0.00;;;20.00;99.90;;;;;;5068948;28;20476;-79
2023/09/25 10:44:12;;;;;;;0.00;0.00;;;20.00;99.90;;;;;;5082967;28;20455;-78
2023/09/25 10:46:38;;;;;;;0.00;0.00;;;20.20;99.90;;;;;;5082294;28;20806;-78
2023/09/25 10:49:05;;;;;;;0.03;0.00;;;20.30;99.90;;;;;;5053869;28;20451;-79
2023/09/25 10:51:31;;;;;;;0.10;0.00;;;20.40;99.90;;;;;;5088570;28;20818;-80
2023/09/25 10:53:56;;;;;;;0.10;0.00;;;20.50;99.90;;;;;;5066255;28;20872;-80
2023/09/25 10:56:22;;;;;;;0.10;0.10;;;20.60;99.90;;;;;;5065700;28;20216;-79
2023/09/25 10:58:50;;;;;;;0.10;0.00;;;20.60;99.90;;;;;;5086701;28;20221;-81
2023/09/25 11:01:22;;;;;;;0.10;0.00;;;20.80;99.90;;;;;;5104864;28;20195;-78
2023/09/25 11:03:47;;;;;;;0.10;0.00;;;20.80;99.90;;;;;;5085558;28;20519;-80
2023/09/25 11:06:13;;;;;;;0.10;0.00;;;20.80;99.90;;;;;;5064353;28;20530;-80
2023/09/25 11:08:39;;;;;;;0.00;0.00;;;21.10;99.90;;;;;;5060480;28;20767;-81
2023/09/25 11:11:04;;;;;;;0.00;0.00;;;21.50;99.90;;;;;;5082219;28;20189;-80
2023/09/25 11:13:30;;;;;;;0.00;0.00;;;21.70;99.90;;;;;;5088772;28;20180;-80
2023/09/25 11:15:56;;;;;;;0.00;0.00;;;21.80;99.90;;;;;;5092327;28;20225;-80
2023/09/25 11:18:21;;;;;;;0.00;0.00;;;21.90;99.90;;;;;;5082298;28;20275;-79
2023/09/25 11:20:48;;;;;;;0.00;0.00;;;21.90;99.90;;;;;;5088382;28;20189;-79
2023/09/25 11:23:16;;;;;;;0.00;0.00;;;22.00;99.90;;;;;;5066996;28;20553;-79
2023/09/25 11:25:46;;;;;;;0.00;0.00;;;21.80;99.90;;;;;;5091303;28;20442;-79
2023/09/25 11:28:22;;;;;;;0.00;0.00;;;21.50;99.90;;;;;;5078689;28;20951;-79
2023/09/25 11:30:49;;;;;;;0.00;0.00;;;21.70;99.90;;;;;;5115370;27;20434;-80
2023/09/25 11:33:19;;;;;;;0.00;0.00;;;21.70;99.90;;;;;;5103300;27;20454;-79
2023/09/25 11:35:45;;;;;;;0.00;0.00;;;21.90;99.90;;;;;;5110342;28;20474;-80
2023/09/25 11:38:17;;;;;;;0.00;0.00;;;21.90;99.90;;;;;;5070467;28;20446;-78
2023/09/25 11:40:44;;;;;;;0.10;0.00;;;21.80;99.90;;;;;;5083005;28;20514;-79
2023/09/25 11:43:10;;;;;;;0.10;0.00;;;21.30;99.90;;;;;;5095692;28;20430;-79
2023/09/25 11:45:36;;;;;;;0.10;0.00;;;21.50;99.90;;;;;;5096295;28;20509;-81
2023/09/25 11:48:03;;;;;;;0.10;0.00;;;21.70;99.90;;;;;;5094034;28;20450;-79
2023/09/25 11:50:29;;;;;;;0.10;0.10;;;21.50;99.90;;;;;;5076472;28;20409;-80
2023/09/25 11:52:55;;;;;;;0.10;0.10;;;21.50;99.90;;;;;;5080638;28;20446;-80
2023/09/25 11:55:21;;;;;;;0.10;0.00;;;21.80;99.90;;;;;;5088830;28;20478;-80
2023/09/25 11:57:46;;;;;;;0.10;0.10;;;21.70;99.90;;;;;;5102618;28;20439;-78
2023/09/25 12:00:18;;;;;;;0.10;0.00;;;21.50;99.90;;;;;;5082449;28;20256;-80
2023/09/25 12:02:46;;;;;;;0.10;0.00;;;21.10;99.90;;;;;;5077403;28;20619;-79
2023/09/25 12:05:12;;;;;;;0.10;0.00;;;21.00;99.90;;;;;;5088373;28;22260;-80
2023/09/25 12:07:38;;;;;;;0.00;0.00;;;20.80;99.90;;;;;;5074386;28;20975;-80
2023/09/25 12:10:05;;;;;;;0.10;0.00;;;20.80;99.90;;;;;;5089080;28;20508;-80
2023/09/25 12:12:41;;;;;;;0.10;0.00;;;20.60;99.90;;;;;;5057164;28;20268;-81
2023/09/25 12:15:07;;;;;;;0.10;0.00;;;20.70;99.90;;;;;;5087152;28;20958;-79
2023/09/25 12:17:34;;;;;;;0.00;0.00;;;21.10;99.90;;;;;;5079407;28;20447;-79
2023/09/25 12:20:01;;;;;;;0.00;0.00;;;21.00;99.90;;;;;;5077483;28;20500;-80
2023/09/25 12:22:28;;;;;;;0.10;0.00;;;20.80;99.90;;;;;;5076528;28;20966;-79
2023/09/25 12:24:53;;;;;;;0.00;0.00;;;20.90;99.90;;;;;;5077720;28;20440;-79
2023/09/25 12:27:19;;;;;;;0.00;0.00;;;20.80;99.90;;;;;;5066143;28;20462;-78
2023/09/25 12:29:45;;;;;;;0.10;0.00;;;20.90;99.90;;;;;;5079111;28;20193;-78
2023/09/25 12:32:11;;;;;;;0.10;0.03;;;20.60;99.90;;;;;;5074825;28;20221;-79
2023/09/25 12:34:38;;;;;;;0.10;0.00;;;20.60;99.90;;;;;;5077500;28;20261;-79
2023/09/25 12:37:06;;;;;;;0.10;0.00;;;20.70;99.90;;;;;;5081827;28;20449;-79
2023/09/25 12:39:34;;;;;;;0.00;0.00;;;20.60;99.90;;;;;;5087445;28;20439;-79
2023/09/25 12:41:59;;;;;;;0.10;0.00;;;20.40;99.90;;;;;;5073444;28;20448;-79
2023/09/25 12:44:25;;;;;;;0.10;0.00;;;20.30;99.90;;;;;;5076226;28;20450;-79